Terminal Aerodrome Forecast
Issued by NWS Greer, SC

Home | Current Version | Previous Version | Text Only | Print | Product List | Glossary On
Versions: 1 2 3 4 5 6 7 8 9 10 11 12 13 14
000
FTUS42 KGSP 051125
TAFGSP
TAF
KGSP 051125Z 0512/0612 18005KT P6SM FEW090
     FM051900 16006KT P6SM SCT060
     FM060400 00000KT P6SM FEW060=

USA.gov is the U.S. government's official web portal to all federal, state and local government web resources and services.